WUK411 EGGW-LRBC
Flight info
| Callsign | WUK411 |
|---|---|
| Flight time | 2h 34m |
| Altitude | 35000 |
| Route | MATCH Q295 BRAIN M197 REDFA DCT TACHA DCT OTMEC DCT KUMER DCT OMELO DCT OMIFU DCT ABULI DCT BADOR DCT MIKVI/N0281F090 Z650 REDKU |
| Aircraft | A21N/M-SDE1E2E3FGIJ1J4RWXY/LB1 |
Departure
| Time | 2026-04-17 11:06 |
|---|---|
| Airport | London Luton Airport (EGGW) |
Arrival
| Time | 2026-04-17 13:41 |
|---|---|
| Airport | Bacău George Enescu International Airport (LRBC) |
| Time | Latitude | Longitude | Altitude | Speed | Heading |
|---|---|---|---|---|---|
| 2026-04-17 10:44 | 51.88095 | -0.37277 | 511 ft | 0 kts | 342° |
| 2026-04-17 10:44 | 51.88095 | -0.37276 | 511 ft | 0 kts | 342° |
| 2026-04-17 10:49 | 51.88094 | -0.37276 | 511 ft | 0 kts | 342° |
| 2026-04-17 10:59 | 51.88091 | -0.37274 | 511 ft | 3 kts | 342° |
| 2026-04-17 10:59 | 51.88073 | -0.37265 | 511 ft | 3 kts | 342° |
| 2026-04-17 11:00 | 51.88055 | -0.37256 | 511 ft | 3 kts | 2° |
| 2026-04-17 11:00 | 51.88037 | -0.37265 | 511 ft | 3 kts | 37° |
| 2026-04-17 11:00 | 51.88030 | -0.37276 | 511 ft | 0 kts | 72° |
| 2026-04-17 11:02 | 51.88038 | -0.37234 | 511 ft | 8 kts | 74° |
| 2026-04-17 11:02 | 51.88000 | -0.37127 | 511 ft | 15 kts | 153° |
| 2026-04-17 11:02 | 51.87913 | -0.37076 | 512 ft | 12 kts | 161° |
| 2026-04-17 11:02 | 51.87838 | -0.37037 | 515 ft | 12 kts | 162° |
| 2026-04-17 11:03 | 51.87746 | -0.36988 | 521 ft | 15 kts | 161° |
| 2026-04-17 11:03 | 51.87675 | -0.36945 | 527 ft | 7 kts | 149° |
| 2026-04-17 11:03 | 51.87654 | -0.36910 | 528 ft | 1 kts | 119° |
| 2026-04-17 11:03 | 51.87653 | -0.36905 | 528 ft | 2 kts | 115° |
| 2026-04-17 11:04 | 51.87650 | -0.36866 | 528 ft | 6 kts | 86° |
| 2026-04-17 11:04 | 51.87668 | -0.36747 | 526 ft | 16 kts | 74° |
| 2026-04-17 11:04 | 51.87704 | -0.36537 | 523 ft | 21 kts | 75° |
| 2026-04-17 11:04 | 51.87743 | -0.36310 | 521 ft | 21 kts | 73° |
| 2026-04-17 11:05 | 51.87777 | -0.36118 | 521 ft | 16 kts | 74° |
| 2026-04-17 11:05 | 51.87744 | -0.35955 | 519 ft | 17 kts | 152° |
| 2026-04-17 11:05 | 51.87636 | -0.35934 | 519 ft | 15 kts | 210° |
| 2026-04-17 11:05 | 51.87573 | -0.36188 | 521 ft | 49 kts | 254° |
| 2026-04-17 11:06 | 51.87426 | -0.37049 | 526 ft | 111 kts | 254° |
| 2026-04-17 11:06 | 51.87167 | -0.38532 | 651 ft | 152 kts | 253° |
| 2026-04-17 11:06 | 51.86868 | -0.40213 | 1206 ft | 159 kts | 247° |
| 2026-04-17 11:06 | 51.86213 | -0.41529 | 1951 ft | 146 kts | 213° |
| 2026-04-17 11:07 | 51.85388 | -0.42445 | 2684 ft | 147 kts | 212° |
| 2026-04-17 11:07 | 51.84442 | -0.43341 | 2970 ft | 171 kts | 210° |
| 2026-04-17 11:07 | 51.83347 | -0.44370 | 3279 ft | 193 kts | 211° |
| 2026-04-17 11:07 | 51.82082 | -0.45319 | 3717 ft | 207 kts | 198° |
| 2026-04-17 11:08 | 51.80620 | -0.45474 | 3955 ft | 215 kts | 178° |
| 2026-04-17 11:08 | 51.79077 | -0.44948 | 4138 ft | 242 kts | 162° |
| 2026-04-17 11:08 | 51.77654 | -0.43272 | 4689 ft | 267 kts | 131° |
| 2026-04-17 11:08 | 51.76947 | -0.40454 | 4993 ft | 280 kts | 99° |
| 2026-04-17 11:09 | 51.76927 | -0.37303 | 5445 ft | 287 kts | 89° |
| 2026-04-17 11:09 | 51.77042 | -0.34087 | 6370 ft | 286 kts | 89° |
| 2026-04-17 11:09 | 51.77148 | -0.30873 | 7269 ft | 287 kts | 89° |
| 2026-04-17 11:10 | 51.77733 | -0.24346 | 8790 ft | 299 kts | 80° |
| 2026-04-17 11:10 | 51.78132 | -0.21061 | 9568 ft | 304 kts | 79° |
| 2026-04-17 11:10 | 51.78574 | -0.17688 | 10290 ft | 311 kts | 78° |
| 2026-04-17 11:10 | 51.79052 | -0.14160 | 10636 ft | 331 kts | 78° |
| 2026-04-17 11:11 | 51.79567 | -0.10406 | 10927 ft | 352 kts | 78° |
| 2026-04-17 11:11 | 51.80110 | -0.06446 | 11351 ft | 367 kts | 78° |
| 2026-04-17 11:11 | 51.80658 | -0.02422 | 11980 ft | 374 kts | 79° |
| 2026-04-17 11:11 | 51.81216 | 0.01707 | 12767 ft | 378 kts | 79° |
| 2026-04-17 11:12 | 51.81780 | 0.05905 | 13390 ft | 387 kts | 79° |
| 2026-04-17 11:12 | 51.82362 | 0.10280 | 13696 ft | 404 kts | 80° |
| 2026-04-17 11:12 | 51.82953 | 0.14745 | 13969 ft | 419 kts | 80° |
| 2026-04-17 11:12 | 51.83568 | 0.19404 | 14452 ft | 424 kts | 80° |
| 2026-04-17 11:13 | 51.84186 | 0.24073 | 15182 ft | 424 kts | 80° |
| 2026-04-17 11:13 | 51.84802 | 0.28747 | 15808 ft | 427 kts | 80° |
| 2026-04-17 11:13 | 51.85424 | 0.33485 | 16391 ft | 431 kts | 80° |
| 2026-04-17 11:13 | 51.86048 | 0.38261 | 16952 ft | 435 kts | 80° |
| 2026-04-17 11:14 | 51.86669 | 0.43026 | 17516 ft | 439 kts | 81° |
| 2026-04-17 11:14 | 51.87299 | 0.47889 | 18066 ft | 443 kts | 81° |
| 2026-04-17 11:14 | 51.87935 | 0.52806 | 18585 ft | 446 kts | 80° |
| 2026-04-17 11:14 | 51.88574 | 0.57763 | 19035 ft | 451 kts | 80° |
| 2026-04-17 11:15 | 51.89214 | 0.62744 | 19461 ft | 455 kts | 80° |
| 2026-04-17 11:15 | 51.89860 | 0.67794 | 19904 ft | 458 kts | 80° |
| 2026-04-17 11:15 | 51.90499 | 0.72808 | 20319 ft | 462 kts | 80° |
| 2026-04-17 11:15 | 51.91149 | 0.77933 | 20743 ft | 466 kts | 80° |
| 2026-04-17 11:16 | 51.91806 | 0.83123 | 21176 ft | 469 kts | 80° |
| 2026-04-17 11:16 | 51.92454 | 0.88265 | 21587 ft | 472 kts | 80° |
| 2026-04-17 11:16 | 51.93113 | 0.93513 | 21993 ft | 476 kts | 80° |
| 2026-04-17 11:16 | 51.93773 | 0.98789 | 22378 ft | 479 kts | 80° |
| 2026-04-17 11:17 | 51.94435 | 1.04103 | 22810 ft | 481 kts | 80° |
| 2026-04-17 11:17 | 51.95096 | 1.09431 | 23212 ft | 484 kts | 80° |
| 2026-04-17 11:17 | 51.95756 | 1.14765 | 23592 ft | 488 kts | 80° |
| 2026-04-17 11:17 | 51.96424 | 1.20189 | 23948 ft | 491 kts | 80° |
| 2026-04-17 11:18 | 51.97093 | 1.25647 | 24300 ft | 494 kts | 80° |
| 2026-04-17 11:18 | 51.97762 | 1.31125 | 24663 ft | 496 kts | 80° |
| 2026-04-17 11:18 | 51.98433 | 1.36638 | 25011 ft | 499 kts | 80° |
| 2026-04-17 11:18 | 51.99104 | 1.42182 | 25355 ft | 501 kts | 80° |
| 2026-04-17 11:19 | 51.99774 | 1.47734 | 25671 ft | 503 kts | 80° |
| 2026-04-17 11:19 | 52.00445 | 1.53321 | 26055 ft | 504 kts | 80° |
| 2026-04-17 11:19 | 52.01115 | 1.58922 | 26376 ft | 506 kts | 80° |
| 2026-04-17 11:19 | 52.01786 | 1.64557 | 26652 ft | 509 kts | 80° |
| 2026-04-17 11:20 | 52.02458 | 1.70225 | 26937 ft | 511 kts | 80° |
| 2026-04-17 11:20 | 52.03119 | 1.75820 | 27207 ft | 513 kts | 80° |
| 2026-04-17 11:20 | 52.03790 | 1.81531 | 27485 ft | 515 kts | 80° |
| 2026-04-17 11:20 | 52.04461 | 1.87263 | 27725 ft | 518 kts | 80° |
| 2026-04-17 11:21 | 52.05127 | 1.93037 | 27967 ft | 519 kts | 82° |
| 2026-04-17 11:21 | 52.05476 | 1.98874 | 28225 ft | 519 kts | 91° |
| 2026-04-17 11:21 | 52.05446 | 2.04718 | 28599 ft | 517 kts | 94° |
| 2026-04-17 11:21 | 52.05269 | 2.10544 | 28967 ft | 516 kts | 96° |
| 2026-04-17 11:22 | 52.05004 | 2.16363 | 29322 ft | 515 kts | 97° |
| 2026-04-17 11:22 | 52.04700 | 2.22091 | 29648 ft | 515 kts | 97° |
| 2026-04-17 11:22 | 52.04376 | 2.27892 | 29975 ft | 515 kts | 97° |
| 2026-04-17 11:22 | 52.04053 | 2.33684 | 30296 ft | 514 kts | 97° |
| 2026-04-17 11:23 | 52.03735 | 2.39473 | 30577 ft | 514 kts | 97° |
| 2026-04-17 11:23 | 52.03421 | 2.45268 | 30843 ft | 514 kts | 96° |
| 2026-04-17 11:23 | 52.03114 | 2.50991 | 31098 ft | 514 kts | 96° |
| 2026-04-17 11:23 | 52.02805 | 2.56781 | 31366 ft | 513 kts | 96° |
| 2026-04-17 11:24 | 52.02495 | 2.62561 | 31639 ft | 513 kts | 96° |
| 2026-04-17 11:24 | 52.02182 | 2.68351 | 31903 ft | 512 kts | 96° |
| 2026-04-17 11:24 | 52.01867 | 2.74122 | 32162 ft | 512 kts | 96° |
| 2026-04-17 11:24 | 52.01552 | 2.79824 | 32408 ft | 512 kts | 96° |
| 2026-04-17 11:25 | 52.01231 | 2.85582 | 32645 ft | 511 kts | 96° |
| 2026-04-17 11:25 | 52.00907 | 2.91348 | 32872 ft | 511 kts | 96° |
| 2026-04-17 11:25 | 52.00582 | 2.97072 | 33184 ft | 508 kts | 96° |
| 2026-04-17 11:25 | 52.00256 | 3.02757 | 33716 ft | 500 kts | 96° |
| 2026-04-17 11:26 | 51.99937 | 3.08297 | 34422 ft | 488 kts | 96° |
| 2026-04-17 11:26 | 51.99624 | 3.13677 | 34804 ft | 482 kts | 96° |
| 2026-04-17 11:26 | 51.99306 | 3.19104 | 35000 ft | 481 kts | 96° |
| 2026-04-17 11:26 | 51.98985 | 3.24525 | 35146 ft | 481 kts | 96° |
| 2026-04-17 11:27 | 51.98335 | 3.35374 | 35205 ft | 482 kts | 96° |
| 2026-04-17 11:27 | 51.97681 | 3.46132 | 35208 ft | 481 kts | 96° |
| 2026-04-17 11:28 | 51.97015 | 3.56925 | 35205 ft | 480 kts | 96° |
| 2026-04-17 11:28 | 51.96339 | 3.67714 | 35203 ft | 480 kts | 96° |
| 2026-04-17 11:29 | 51.95660 | 3.78404 | 35210 ft | 480 kts | 96° |
| 2026-04-17 11:29 | 51.94965 | 3.89184 | 35212 ft | 480 kts | 96° |
| 2026-04-17 11:30 | 51.94259 | 3.99962 | 35214 ft | 479 kts | 96° |
| 2026-04-17 11:30 | 51.93550 | 4.10651 | 35210 ft | 479 kts | 96° |
| 2026-04-17 11:31 | 51.92828 | 4.21385 | 35210 ft | 478 kts | 96° |
| 2026-04-17 11:31 | 51.92100 | 4.32049 | 35211 ft | 478 kts | 96° |
| 2026-04-17 11:32 | 51.91358 | 4.42795 | 35212 ft | 478 kts | 96° |
| 2026-04-17 11:32 | 51.90610 | 4.53457 | 35210 ft | 478 kts | 96° |
| 2026-04-17 11:33 | 51.89848 | 4.64187 | 35212 ft | 478 kts | 96° |
| 2026-04-17 11:33 | 51.89209 | 4.73084 | 35211 ft | 478 kts | 96° |
| 2026-04-17 11:34 | 51.88431 | 4.83788 | 35216 ft | 478 kts | 96° |
| 2026-04-17 11:34 | 51.87516 | 4.96209 | 35222 ft | 477 kts | 96° |
| 2026-04-17 11:35 | 51.86853 | 5.05085 | 35227 ft | 477 kts | 96° |
| 2026-04-17 11:35 | 51.86048 | 5.15741 | 35232 ft | 477 kts | 96° |
| 2026-04-17 11:36 | 51.85234 | 5.26389 | 35233 ft | 477 kts | 96° |
| 2026-04-17 11:36 | 51.84409 | 5.37057 | 35233 ft | 477 kts | 96° |
| 2026-04-17 11:37 | 51.83581 | 5.47634 | 35230 ft | 477 kts | 96° |
| 2026-04-17 11:37 | 51.82737 | 5.58292 | 35230 ft | 477 kts | 96° |
| 2026-04-17 11:38 | 51.81889 | 5.68864 | 35216 ft | 476 kts | 96° |
| 2026-04-17 11:38 | 51.81026 | 5.79509 | 35214 ft | 476 kts | 97° |
| 2026-04-17 11:39 | 51.80155 | 5.90125 | 35219 ft | 476 kts | 96° |
| 2026-04-17 11:39 | 51.79279 | 6.00692 | 35219 ft | 476 kts | 96° |
| 2026-04-17 11:40 | 51.78388 | 6.11316 | 35218 ft | 476 kts | 96° |
| 2026-04-17 11:40 | 51.77488 | 6.21936 | 35217 ft | 476 kts | 97° |
| 2026-04-17 11:41 | 51.76585 | 6.32467 | 35220 ft | 476 kts | 96° |
| 2026-04-17 11:41 | 51.75664 | 6.43079 | 35223 ft | 476 kts | 96° |
| 2026-04-17 11:42 | 51.74741 | 6.53617 | 35234 ft | 476 kts | 97° |
| 2026-04-17 11:42 | 51.73841 | 6.63787 | 35232 ft | 476 kts | 97° |
| 2026-04-17 11:43 | 51.72895 | 6.74370 | 35229 ft | 476 kts | 97° |
| 2026-04-17 11:43 | 51.71945 | 6.84885 | 35230 ft | 476 kts | 97° |
| 2026-04-17 11:44 | 51.70981 | 6.95443 | 35229 ft | 476 kts | 97° |
| 2026-04-17 11:44 | 51.70006 | 7.06010 | 35224 ft | 476 kts | 97° |
| 2026-04-17 11:45 | 51.69025 | 7.16536 | 35226 ft | 476 kts | 97° |
| 2026-04-17 11:45 | 51.68031 | 7.27106 | 35222 ft | 476 kts | 97° |
| 2026-04-17 11:46 | 51.67027 | 7.37658 | 35217 ft | 476 kts | 97° |
| 2026-04-17 11:46 | 51.66016 | 7.48194 | 35216 ft | 476 kts | 97° |
| 2026-04-17 11:47 | 51.65003 | 7.58648 | 35213 ft | 476 kts | 97° |
| 2026-04-17 11:47 | 51.63972 | 7.69186 | 35211 ft | 476 kts | 97° |
| 2026-04-17 11:48 | 51.62932 | 7.79716 | 35211 ft | 476 kts | 97° |
| 2026-04-17 11:48 | 51.61888 | 7.90178 | 35213 ft | 476 kts | 97° |
| 2026-04-17 11:49 | 51.60827 | 8.00718 | 35215 ft | 476 kts | 97° |
| 2026-04-17 11:49 | 51.59757 | 8.11243 | 35214 ft | 476 kts | 97° |
| 2026-04-17 11:50 | 51.58682 | 8.21728 | 35221 ft | 476 kts | 97° |
| 2026-04-17 11:50 | 51.57592 | 8.32262 | 35216 ft | 476 kts | 97° |
| 2026-04-17 11:51 | 51.56495 | 8.42761 | 35214 ft | 475 kts | 97° |
| 2026-04-17 11:51 | 51.55398 | 8.53173 | 35213 ft | 475 kts | 97° |
| 2026-04-17 11:52 | 51.54282 | 8.63668 | 35211 ft | 475 kts | 97° |
| 2026-04-17 11:52 | 51.53157 | 8.74158 | 35211 ft | 475 kts | 97° |
| 2026-04-17 11:53 | 51.52034 | 8.84537 | 35212 ft | 474 kts | 97° |
| 2026-04-17 11:53 | 51.50894 | 8.94980 | 35216 ft | 474 kts | 98° |
| 2026-04-17 11:54 | 51.49745 | 9.05421 | 35220 ft | 474 kts | 98° |
| 2026-04-17 11:54 | 51.48588 | 9.15844 | 35224 ft | 474 kts | 98° |
| 2026-04-17 11:55 | 51.47420 | 9.26278 | 35224 ft | 474 kts | 98° |
| 2026-04-17 11:55 | 51.46243 | 9.36695 | 35224 ft | 474 kts | 98° |
| 2026-04-17 11:56 | 51.45065 | 9.47044 | 35210 ft | 474 kts | 98° |
| 2026-04-17 11:56 | 51.43868 | 9.57468 | 35212 ft | 474 kts | 98° |
| 2026-04-17 11:57 | 51.42671 | 9.67809 | 35217 ft | 474 kts | 98° |
| 2026-04-17 11:57 | 51.41455 | 9.78227 | 35219 ft | 475 kts | 98° |
| 2026-04-17 11:58 | 51.40230 | 9.88645 | 35225 ft | 475 kts | 98° |
| 2026-04-17 11:58 | 51.39006 | 9.98968 | 35229 ft | 475 kts | 98° |
| 2026-04-17 11:59 | 51.37763 | 10.09370 | 35250 ft | 475 kts | 98° |
| 2026-04-17 11:59 | 51.36516 | 10.19715 | 35237 ft | 475 kts | 98° |
| 2026-04-17 12:00 | 51.35255 | 10.30101 | 35240 ft | 474 kts | 98° |
| 2026-04-17 12:00 | 51.33985 | 10.40471 | 35246 ft | 474 kts | 98° |
| 2026-04-17 12:01 | 51.32718 | 10.50753 | 35243 ft | 474 kts | 98° |
| 2026-04-17 12:01 | 51.31433 | 10.61095 | 35250 ft | 474 kts | 98° |
| 2026-04-17 12:02 | 51.30138 | 10.71437 | 35248 ft | 473 kts | 98° |
| 2026-04-17 12:02 | 51.28836 | 10.81751 | 35253 ft | 473 kts | 98° |
| 2026-04-17 12:03 | 51.27531 | 10.92019 | 35248 ft | 474 kts | 98° |
| 2026-04-17 12:03 | 51.26208 | 11.02353 | 35262 ft | 474 kts | 98° |
| 2026-04-17 12:04 | 51.24878 | 11.12659 | 35252 ft | 473 kts | 98° |
| 2026-04-17 12:04 | 51.23548 | 11.22891 | 35257 ft | 473 kts | 98° |
| 2026-04-17 12:05 | 51.22202 | 11.33168 | 35258 ft | 473 kts | 98° |
| 2026-04-17 12:05 | 51.20856 | 11.43375 | 35257 ft | 473 kts | 98° |
| 2026-04-17 12:06 | 51.19492 | 11.53640 | 35260 ft | 472 kts | 98° |
| 2026-04-17 12:06 | 51.18120 | 11.63893 | 35257 ft | 472 kts | 98° |
| 2026-04-17 12:07 | 51.16742 | 11.74129 | 35259 ft | 472 kts | 98° |
| 2026-04-17 12:07 | 51.15361 | 11.84307 | 35258 ft | 472 kts | 98° |
| 2026-04-17 12:08 | 51.13963 | 11.94539 | 35277 ft | 472 kts | 98° |
| 2026-04-17 12:08 | 51.12555 | 12.04768 | 35252 ft | 472 kts | 98° |
| 2026-04-17 12:09 | 51.11149 | 12.14918 | 35253 ft | 472 kts | 98° |
| 2026-04-17 12:09 | 51.09724 | 12.25136 | 35245 ft | 472 kts | 98° |
| 2026-04-17 12:10 | 51.08289 | 12.35354 | 35245 ft | 472 kts | 98° |
| 2026-04-17 12:10 | 51.06855 | 12.45490 | 35234 ft | 472 kts | 98° |
| 2026-04-17 12:11 | 51.05401 | 12.55708 | 35239 ft | 472 kts | 98° |
| 2026-04-17 12:12 | 51.03212 | 12.70956 | 35237 ft | 472 kts | 98° |
| 2026-04-17 12:12 | 51.01738 | 12.81139 | 35257 ft | 473 kts | 98° |
| 2026-04-17 12:13 | 51.00264 | 12.91249 | 35250 ft | 473 kts | 98° |
| 2026-04-17 12:13 | 50.98772 | 13.01420 | 35251 ft | 473 kts | 98° |
| 2026-04-17 12:14 | 50.97269 | 13.11603 | 35254 ft | 473 kts | 98° |
| 2026-04-17 12:14 | 50.95758 | 13.21771 | 35261 ft | 473 kts | 98° |
| 2026-04-17 12:15 | 50.94246 | 13.31884 | 35277 ft | 473 kts | 98° |
| 2026-04-17 12:15 | 50.92715 | 13.42047 | 35256 ft | 473 kts | 98° |
| 2026-04-17 12:16 | 50.91176 | 13.52209 | 35257 ft | 473 kts | 98° |
| 2026-04-17 12:16 | 50.89637 | 13.62305 | 35259 ft | 473 kts | 98° |
| 2026-04-17 12:17 | 50.88081 | 13.72448 | 35261 ft | 473 kts | 99° |
| 2026-04-17 12:17 | 50.86522 | 13.82539 | 35253 ft | 474 kts | 99° |
| 2026-04-17 12:18 | 50.84948 | 13.92672 | 35253 ft | 474 kts | 99° |
| 2026-04-17 12:18 | 50.82653 | 14.02513 | 35253 ft | 481 kts | 115° |
| 2026-04-17 12:19 | 50.79254 | 14.11593 | 35252 ft | 484 kts | 119° |
| 2026-04-17 12:19 | 50.75601 | 14.20566 | 35247 ft | 484 kts | 120° |
| 2026-04-17 12:20 | 50.72540 | 14.27996 | 35247 ft | 484 kts | 120° |
| 2026-04-17 12:20 | 50.68279 | 14.38395 | 35240 ft | 484 kts | 120° |
| 2026-04-17 12:21 | 50.65245 | 14.45821 | 35238 ft | 484 kts | 120° |
| 2026-04-17 12:21 | 50.61592 | 14.54745 | 35239 ft | 484 kts | 120° |
| 2026-04-17 12:22 | 50.57933 | 14.63653 | 35239 ft | 484 kts | 120° |
| 2026-04-17 12:22 | 50.54290 | 14.72492 | 35236 ft | 484 kts | 120° |
| 2026-04-17 12:23 | 50.50609 | 14.81389 | 35230 ft | 484 kts | 120° |
| 2026-04-17 12:23 | 50.46947 | 14.90210 | 35232 ft | 484 kts | 120° |
| 2026-04-17 12:24 | 50.43256 | 14.99072 | 35240 ft | 484 kts | 120° |
| 2026-04-17 12:24 | 50.39557 | 15.07923 | 35232 ft | 484 kts | 120° |
| 2026-04-17 12:25 | 50.35878 | 15.16695 | 35228 ft | 484 kts | 120° |
| 2026-04-17 12:25 | 50.32164 | 15.25522 | 35220 ft | 484 kts | 120° |
| 2026-04-17 12:26 | 50.28471 | 15.34271 | 35221 ft | 484 kts | 120° |
| 2026-04-17 12:26 | 50.24744 | 15.43071 | 35222 ft | 485 kts | 120° |
| 2026-04-17 12:27 | 50.21002 | 15.51876 | 35206 ft | 485 kts | 120° |
| 2026-04-17 12:27 | 50.17281 | 15.60601 | 35217 ft | 485 kts | 120° |
| 2026-04-17 12:28 | 50.13532 | 15.69363 | 35216 ft | 485 kts | 120° |
| 2026-04-17 12:28 | 50.09771 | 15.78124 | 35211 ft | 485 kts | 120° |
| 2026-04-17 12:29 | 50.06023 | 15.86827 | 35208 ft | 486 kts | 121° |
| 2026-04-17 12:29 | 50.02278 | 15.95600 | 35205 ft | 484 kts | 116° |
| 2026-04-17 12:30 | 49.99177 | 16.04860 | 35208 ft | 482 kts | 112° |
| 2026-04-17 12:30 | 49.96259 | 16.14171 | 35229 ft | 482 kts | 111° |
| 2026-04-17 12:31 | 49.93350 | 16.23560 | 35204 ft | 483 kts | 111° |
| 2026-04-17 12:31 | 49.90417 | 16.32956 | 35202 ft | 483 kts | 112° |
| 2026-04-17 12:32 | 49.87465 | 16.42343 | 35202 ft | 483 kts | 112° |
| 2026-04-17 12:32 | 49.84525 | 16.51640 | 35200 ft | 483 kts | 112° |
| 2026-04-17 12:33 | 49.81555 | 16.60999 | 35195 ft | 483 kts | 112° |
| 2026-04-17 12:33 | 49.78601 | 16.70271 | 35194 ft | 483 kts | 112° |
| 2026-04-17 12:34 | 49.75621 | 16.79596 | 35193 ft | 483 kts | 112° |
| 2026-04-17 12:34 | 49.72634 | 16.88906 | 35190 ft | 483 kts | 112° |
| 2026-04-17 12:35 | 49.69661 | 16.98140 | 35188 ft | 482 kts | 112° |
| 2026-04-17 12:35 | 49.66666 | 17.07403 | 35186 ft | 481 kts | 112° |
| 2026-04-17 12:37 | 49.54657 | 17.44213 | 35175 ft | 478 kts | 113° |
| 2026-04-17 12:38 | 49.51660 | 17.53318 | 35190 ft | 480 kts | 113° |
| 2026-04-17 12:38 | 49.48625 | 17.62505 | 35189 ft | 481 kts | 113° |
| 2026-04-17 12:39 | 49.45580 | 17.71686 | 35189 ft | 481 kts | 113° |
| 2026-04-17 12:39 | 49.42545 | 17.80805 | 35193 ft | 481 kts | 113° |
| 2026-04-17 12:40 | 49.39488 | 17.89957 | 35191 ft | 481 kts | 114° |
| 2026-04-17 12:40 | 49.36421 | 17.99103 | 35188 ft | 481 kts | 114° |
| 2026-04-17 12:41 | 49.33370 | 18.08175 | 35213 ft | 481 kts | 114° |
| 2026-04-17 12:41 | 49.30298 | 18.17273 | 35187 ft | 480 kts | 114° |
| 2026-04-17 12:42 | 49.27349 | 18.25976 | 35186 ft | 479 kts | 114° |
| 2026-04-17 12:42 | 49.24284 | 18.34992 | 35188 ft | 479 kts | 114° |
| 2026-04-17 12:43 | 49.21197 | 18.44041 | 35170 ft | 479 kts | 114° |
| 2026-04-17 12:43 | 49.18123 | 18.53021 | 35172 ft | 478 kts | 115° |
| 2026-04-17 12:44 | 49.15030 | 18.62020 | 35169 ft | 477 kts | 115° |
| 2026-04-17 12:44 | 49.11955 | 18.70936 | 35165 ft | 477 kts | 115° |
| 2026-04-17 12:45 | 49.08852 | 18.79905 | 35173 ft | 479 kts | 115° |
| 2026-04-17 12:45 | 49.05726 | 18.88910 | 35162 ft | 478 kts | 115° |
| 2026-04-17 12:46 | 49.02614 | 18.97839 | 35167 ft | 476 kts | 115° |
| 2026-04-17 12:46 | 48.99498 | 19.06752 | 35157 ft | 476 kts | 115° |
| 2026-04-17 12:47 | 48.96378 | 19.15643 | 35153 ft | 475 kts | 115° |
| 2026-04-17 12:47 | 48.93271 | 19.24471 | 35164 ft | 475 kts | 116° |
| 2026-04-17 12:48 | 48.90143 | 19.33324 | 35144 ft | 473 kts | 116° |
| 2026-04-17 12:48 | 48.87016 | 19.42149 | 35142 ft | 473 kts | 116° |
| 2026-04-17 12:49 | 48.83884 | 19.50955 | 35136 ft | 473 kts | 116° |
| 2026-04-17 12:49 | 48.80764 | 19.59700 | 35139 ft | 473 kts | 116° |
| 2026-04-17 12:50 | 48.77617 | 19.68488 | 35133 ft | 473 kts | 116° |
| 2026-04-17 12:50 | 48.74487 | 19.77199 | 35127 ft | 472 kts | 116° |
| 2026-04-17 12:51 | 48.71351 | 19.85900 | 35122 ft | 472 kts | 116° |
| 2026-04-17 12:51 | 48.68191 | 19.94633 | 35121 ft | 472 kts | 116° |
| 2026-04-17 12:52 | 48.65031 | 20.03340 | 35113 ft | 472 kts | 117° |
| 2026-04-17 12:52 | 48.61859 | 20.12055 | 35120 ft | 473 kts | 117° |
| 2026-04-17 12:53 | 48.58694 | 20.20719 | 35114 ft | 473 kts | 117° |
| 2026-04-17 12:53 | 48.55510 | 20.29407 | 35115 ft | 473 kts | 117° |
| 2026-04-17 12:54 | 48.52318 | 20.38087 | 35117 ft | 472 kts | 117° |
| 2026-04-17 12:54 | 48.49118 | 20.46672 | 35117 ft | 471 kts | 121° |
| 2026-04-17 12:55 | 48.45191 | 20.54614 | 35122 ft | 472 kts | 128° |
| 2026-04-17 12:55 | 48.41047 | 20.62262 | 35119 ft | 473 kts | 128° |
| 2026-04-17 12:56 | 48.36836 | 20.69879 | 35121 ft | 473 kts | 129° |
| 2026-04-17 12:56 | 48.32634 | 20.77478 | 35118 ft | 473 kts | 129° |
| 2026-04-17 12:57 | 48.28422 | 20.85104 | 35124 ft | 473 kts | 129° |
| 2026-04-17 12:57 | 48.24241 | 20.92665 | 35126 ft | 474 kts | 129° |
| 2026-04-17 12:58 | 48.20016 | 21.00286 | 35124 ft | 475 kts | 129° |
| 2026-04-17 12:58 | 48.15782 | 21.07899 | 35120 ft | 474 kts | 129° |
| 2026-04-17 12:59 | 48.11550 | 21.15488 | 35117 ft | 474 kts | 129° |
| 2026-04-17 12:59 | 48.07334 | 21.23025 | 35118 ft | 474 kts | 129° |
| 2026-04-17 13:00 | 48.03095 | 21.30581 | 35114 ft | 474 kts | 129° |
| 2026-04-17 13:00 | 47.98846 | 21.38136 | 35113 ft | 474 kts | 129° |
| 2026-04-17 13:01 | 47.94612 | 21.45642 | 35112 ft | 474 kts | 129° |
| 2026-04-17 13:01 | 47.90351 | 21.53175 | 35109 ft | 475 kts | 130° |
| 2026-04-17 13:02 | 47.86100 | 21.60670 | 35131 ft | 476 kts | 130° |
| 2026-04-17 13:02 | 47.81818 | 21.68199 | 35122 ft | 474 kts | 130° |
| 2026-04-17 13:03 | 47.77578 | 21.75631 | 35102 ft | 473 kts | 130° |
| 2026-04-17 13:03 | 47.73311 | 21.83091 | 35101 ft | 473 kts | 130° |
| 2026-04-17 13:04 | 47.69060 | 21.90502 | 35101 ft | 473 kts | 130° |
| 2026-04-17 13:04 | 47.64783 | 21.97940 | 35100 ft | 472 kts | 131° |
| 2026-04-17 13:05 | 47.60509 | 22.05350 | 35094 ft | 472 kts | 131° |
| 2026-04-17 13:05 | 47.56891 | 22.13321 | 35085 ft | 469 kts | 112° |
| 2026-04-17 13:06 | 47.54429 | 22.22319 | 35089 ft | 472 kts | 109° |
| 2026-04-17 13:06 | 47.52195 | 22.31483 | 35084 ft | 472 kts | 109° |
| 2026-04-17 13:07 | 47.49990 | 22.40603 | 35082 ft | 473 kts | 109° |
| 2026-04-17 13:07 | 47.47735 | 22.49762 | 35080 ft | 473 kts | 110° |
| 2026-04-17 13:08 | 47.45470 | 22.58842 | 35078 ft | 473 kts | 110° |
| 2026-04-17 13:08 | 47.43554 | 22.66479 | 35080 ft | 473 kts | 110° |
| 2026-04-17 13:09 | 47.41273 | 22.75537 | 35068 ft | 473 kts | 110° |
| 2026-04-17 13:09 | 47.38969 | 22.84654 | 35070 ft | 473 kts | 110° |
| 2026-04-17 13:10 | 47.36660 | 22.93756 | 35067 ft | 473 kts | 110° |
| 2026-04-17 13:10 | 47.34359 | 23.02795 | 35063 ft | 473 kts | 111° |
| 2026-04-17 13:11 | 47.32029 | 23.11911 | 35059 ft | 474 kts | 111° |
| 2026-04-17 13:11 | 47.29708 | 23.20953 | 35058 ft | 474 kts | 111° |
| 2026-04-17 13:12 | 47.27361 | 23.30061 | 35052 ft | 474 kts | 111° |
| 2026-04-17 13:12 | 47.23846 | 23.43634 | 35048 ft | 474 kts | 111° |
| 2026-04-17 13:13 | 47.21480 | 23.52729 | 35047 ft | 475 kts | 112° |
| 2026-04-17 13:13 | 47.19121 | 23.61754 | 35038 ft | 475 kts | 112° |
| 2026-04-17 13:14 | 47.16744 | 23.70819 | 35037 ft | 475 kts | 112° |
| 2026-04-17 13:14 | 47.14358 | 23.79880 | 35037 ft | 474 kts | 112° |
| 2026-04-17 13:15 | 47.11987 | 23.88852 | 35032 ft | 474 kts | 112° |
| 2026-04-17 13:15 | 47.09589 | 23.97889 | 35031 ft | 474 kts | 112° |
| 2026-04-17 13:16 | 47.07187 | 24.06906 | 35029 ft | 474 kts | 112° |
| 2026-04-17 13:16 | 47.04773 | 24.15932 | 35028 ft | 474 kts | 113° |
| 2026-04-17 13:17 | 47.02353 | 24.24948 | 35027 ft | 475 kts | 113° |
| 2026-04-17 13:17 | 46.99939 | 24.33909 | 35029 ft | 475 kts | 113° |
| 2026-04-17 13:18 | 46.97504 | 24.42914 | 34745 ft | 473 kts | 113° |
| 2026-04-17 13:18 | 46.96290 | 24.47394 | 34498 ft | 472 kts | 114° |
| 2026-04-17 13:18 | 46.95093 | 24.51802 | 34266 ft | 472 kts | 114° |
| 2026-04-17 13:19 | 46.93877 | 24.56267 | 34030 ft | 473 kts | 115° |
| 2026-04-17 13:19 | 46.92656 | 24.60742 | 33755 ft | 473 kts | 115° |
| 2026-04-17 13:19 | 46.91434 | 24.65211 | 33297 ft | 472 kts | 115° |
| 2026-04-17 13:19 | 46.90220 | 24.69648 | 32768 ft | 467 kts | 115° |
| 2026-04-17 13:20 | 46.89017 | 24.74038 | 32225 ft | 462 kts | 115° |
| 2026-04-17 13:20 | 46.87824 | 24.78383 | 31678 ft | 459 kts | 115° |
| 2026-04-17 13:20 | 46.86635 | 24.82704 | 31128 ft | 456 kts | 115° |
| 2026-04-17 13:20 | 46.85468 | 24.86934 | 30583 ft | 453 kts | 115° |
| 2026-04-17 13:21 | 46.84290 | 24.91197 | 30015 ft | 451 kts | 115° |
| 2026-04-17 13:21 | 46.83117 | 24.95434 | 29391 ft | 448 kts | 115° |
| 2026-04-17 13:21 | 46.81954 | 24.99626 | 28835 ft | 444 kts | 115° |
| 2026-04-17 13:21 | 46.80797 | 25.03792 | 28284 ft | 440 kts | 115° |
| 2026-04-17 13:22 | 46.79649 | 25.07916 | 27737 ft | 436 kts | 115° |
| 2026-04-17 13:22 | 46.78522 | 25.11956 | 27192 ft | 433 kts | 115° |
| 2026-04-17 13:22 | 46.77387 | 25.16019 | 26645 ft | 430 kts | 115° |
| 2026-04-17 13:22 | 46.76261 | 25.20044 | 26086 ft | 428 kts | 115° |
| 2026-04-17 13:23 | 46.75140 | 25.24048 | 25543 ft | 425 kts | 115° |
| 2026-04-17 13:23 | 46.74019 | 25.28043 | 24987 ft | 424 kts | 115° |
| 2026-04-17 13:23 | 46.72904 | 25.32009 | 24455 ft | 422 kts | 115° |
| 2026-04-17 13:23 | 46.71790 | 25.35967 | 23901 ft | 420 kts | 115° |
| 2026-04-17 13:24 | 46.70680 | 25.39898 | 23308 ft | 419 kts | 114° |
| 2026-04-17 13:24 | 46.69587 | 25.43769 | 22733 ft | 416 kts | 114° |
| 2026-04-17 13:24 | 46.68491 | 25.47645 | 22190 ft | 412 kts | 114° |
| 2026-04-17 13:24 | 46.67402 | 25.51492 | 21640 ft | 409 kts | 114° |
| 2026-04-17 13:25 | 46.66319 | 25.55309 | 21095 ft | 405 kts | 114° |
| 2026-04-17 13:25 | 46.65246 | 25.59085 | 20564 ft | 402 kts | 114° |
| 2026-04-17 13:25 | 46.64176 | 25.62843 | 20021 ft | 399 kts | 114° |
| 2026-04-17 13:25 | 46.63115 | 25.66566 | 19482 ft | 397 kts | 114° |
| 2026-04-17 13:26 | 46.62072 | 25.70216 | 18955 ft | 394 kts | 114° |
| 2026-04-17 13:26 | 46.61018 | 25.73900 | 18422 ft | 392 kts | 114° |
| 2026-04-17 13:26 | 46.59970 | 25.77556 | 17839 ft | 389 kts | 114° |
| 2026-04-17 13:26 | 46.58934 | 25.81170 | 17309 ft | 385 kts | 114° |
| 2026-04-17 13:27 | 46.57906 | 25.84749 | 16781 ft | 381 kts | 114° |
| 2026-04-17 13:27 | 46.56902 | 25.88240 | 16273 ft | 377 kts | 114° |
| 2026-04-17 13:27 | 46.55893 | 25.91743 | 15756 ft | 373 kts | 114° |
| 2026-04-17 13:27 | 46.54897 | 25.95202 | 15252 ft | 369 kts | 114° |
| 2026-04-17 13:28 | 46.53909 | 25.98622 | 14754 ft | 365 kts | 114° |
| 2026-04-17 13:28 | 46.52927 | 26.02015 | 14251 ft | 362 kts | 114° |
| 2026-04-17 13:28 | 46.51952 | 26.05376 | 13758 ft | 359 kts | 114° |
| 2026-04-17 13:28 | 46.50987 | 26.08704 | 13213 ft | 355 kts | 114° |
| 2026-04-17 13:29 | 46.50199 | 26.12086 | 12732 ft | 350 kts | 97° |
| 2026-04-17 13:29 | 46.50014 | 26.15519 | 12379 ft | 342 kts | 92° |
| 2026-04-17 13:29 | 46.49942 | 26.18947 | 11910 ft | 337 kts | 89° |
| 2026-04-17 13:29 | 46.49966 | 26.22333 | 11440 ft | 333 kts | 88° |
| 2026-04-17 13:30 | 46.50039 | 26.25679 | 10977 ft | 330 kts | 86° |
| 2026-04-17 13:30 | 46.50128 | 26.29004 | 10508 ft | 327 kts | 87° |
| 2026-04-17 13:30 | 46.50211 | 26.32139 | 10316 ft | 315 kts | 87° |
| 2026-04-17 13:30 | 46.50285 | 26.35109 | 10102 ft | 304 kts | 87° |
| 2026-04-17 13:31 | 46.50355 | 26.38182 | 9627 ft | 304 kts | 88° |
| 2026-04-17 13:31 | 46.50420 | 26.41201 | 9202 ft | 300 kts | 88° |
| 2026-04-17 13:31 | 46.50479 | 26.44204 | 8788 ft | 296 kts | 88° |
| 2026-04-17 13:31 | 46.50534 | 26.47174 | 8386 ft | 292 kts | 88° |
| 2026-04-17 13:32 | 46.50586 | 26.50121 | 7980 ft | 289 kts | 88° |
| 2026-04-17 13:32 | 46.50586 | 26.53024 | 7585 ft | 287 kts | 96° |
| 2026-04-17 13:32 | 46.50109 | 26.55807 | 7206 ft | 284 kts | 111° |
| 2026-04-17 13:32 | 46.49308 | 26.58381 | 6814 ft | 282 kts | 116° |
| 2026-04-17 13:33 | 46.48414 | 26.60918 | 6426 ft | 280 kts | 117° |
| 2026-04-17 13:33 | 46.47506 | 26.63415 | 6026 ft | 278 kts | 117° |
| 2026-04-17 13:33 | 46.46603 | 26.65866 | 5640 ft | 273 kts | 117° |
| 2026-04-17 13:33 | 46.45707 | 26.68292 | 5266 ft | 272 kts | 117° |
| 2026-04-17 13:34 | 46.44814 | 26.70706 | 4896 ft | 271 kts | 116° |
| 2026-04-17 13:34 | 46.43932 | 26.73088 | 4507 ft | 270 kts | 116° |
| 2026-04-17 13:34 | 46.43046 | 26.75474 | 4133 ft | 267 kts | 116° |
| 2026-04-17 13:34 | 46.42168 | 26.77834 | 3773 ft | 263 kts | 116° |
| 2026-04-17 13:35 | 46.41285 | 26.80145 | 3448 ft | 263 kts | 120° |
| 2026-04-17 13:35 | 46.40185 | 26.82223 | 3125 ft | 255 kts | 128° |
| 2026-04-17 13:35 | 46.39029 | 26.84091 | 2794 ft | 243 kts | 130° |
| 2026-04-17 13:35 | 46.37909 | 26.85886 | 2627 ft | 239 kts | 127° |
| 2026-04-17 13:36 | 46.37202 | 26.87918 | 2531 ft | 217 kts | 97° |
| 2026-04-17 13:36 | 46.37202 | 26.89955 | 2452 ft | 188 kts | 73° |
| 2026-04-17 13:36 | 46.37730 | 26.91440 | 2440 ft | 152 kts | 50° |
| 2026-04-17 13:36 | 46.38390 | 26.92487 | 2402 ft | 133 kts | 35° |
| 2026-04-17 13:37 | 46.39177 | 26.93242 | 2391 ft | 135 kts | 25° |
| 2026-04-17 13:37 | 46.40042 | 26.93737 | 2381 ft | 133 kts | 16° |
| 2026-04-17 13:37 | 46.40921 | 26.94145 | 2376 ft | 133 kts | 16° |
| 2026-04-17 13:37 | 46.41811 | 26.94520 | 2378 ft | 133 kts | 8° |
| 2026-04-17 13:38 | 46.42725 | 26.94603 | 2316 ft | 132 kts | 356° |
| 2026-04-17 13:38 | 46.43626 | 26.94348 | 2195 ft | 132 kts | 346° |
| 2026-04-17 13:38 | 46.44509 | 26.94000 | 2014 ft | 131 kts | 346° |
| 2026-04-17 13:38 | 46.45388 | 26.93661 | 1819 ft | 131 kts | 345° |
| 2026-04-17 13:39 | 46.46261 | 26.93322 | 1637 ft | 132 kts | 346° |
| 2026-04-17 13:39 | 46.47150 | 26.92979 | 1444 ft | 132 kts | 345° |
| 2026-04-17 13:39 | 46.48041 | 26.92631 | 1273 ft | 134 kts | 345° |
| 2026-04-17 13:39 | 46.48933 | 26.92283 | 1088 ft | 131 kts | 344° |
| 2026-04-17 13:40 | 46.49808 | 26.91949 | 886 ft | 129 kts | 343° |
| 2026-04-17 13:40 | 46.50675 | 26.91596 | 733 ft | 131 kts | 345° |
| 2026-04-17 13:40 | 46.51534 | 26.91267 | 631 ft | 120 kts | 345° |
| 2026-04-17 13:40 | 46.52250 | 26.90993 | 627 ft | 87 kts | 345° |
| 2026-04-17 13:41 | 46.52530 | 26.90887 | 625 ft | 23 kts | 346° |
| 2026-04-17 13:41 | 46.52679 | 26.90830 | 624 ft | 18 kts | 345° |
| 2026-04-17 13:41 | 46.52724 | 26.90815 | 620 ft | 5 kts | 353° |
| 2026-04-17 13:41 | 46.52752 | 26.90828 | 621 ft | 3 kts | 44° |
| 2026-04-17 13:42 | 46.52760 | 26.90854 | 623 ft | 3 kts | 75° |
| 2026-04-17 13:42 | 46.52766 | 26.90898 | 617 ft | 5 kts | 78° |
| 2026-04-17 13:42 | 46.52773 | 26.90947 | 623 ft | 5 kts | 78° |
| 2026-04-17 13:42 | 46.52791 | 26.90994 | 628 ft | 6 kts | 43° |
| 2026-04-17 13:43 | 46.52828 | 26.91009 | 621 ft | 6 kts | 348° |
| 2026-04-17 13:43 | 46.52868 | 26.90992 | 619 ft | 6 kts | 343° |
| 2026-04-17 13:43 | 46.52912 | 26.90974 | 619 ft | 7 kts | 345° |
| 2026-04-17 13:43 | 46.52961 | 26.90955 | 625 ft | 8 kts | 345° |
| 2026-04-17 13:44 | 46.52985 | 26.90945 | 628 ft | 0 kts | 345° |
| 2026-04-17 13:44 | 46.53010 | 26.90936 | 620 ft | 8 kts | 345° |
| 2026-04-17 13:44 | 46.53057 | 26.90918 | 629 ft | 6 kts | 346° |
| 2026-04-17 13:45 | 46.53096 | 26.90904 | 627 ft | 7 kts | 346° |
| 2026-04-17 13:45 | 46.53141 | 26.90908 | 627 ft | 6 kts | 52° |
| 2026-04-17 13:45 | 46.53149 | 26.90955 | 620 ft | 4 kts | 76° |
| 2026-04-17 13:45 | 46.53153 | 26.90977 | 620 ft | 1 kts | 75° |
| 2026-04-17 13:46 | 46.53156 | 26.90992 | 623 ft | 1 kts | 75° |
| 2026-04-17 13:46 | 46.53156 | 26.90996 | 624 ft | 0 kts | 75° |